createdAt,value
2018-06-17T00:02:28.467Z,57.87
2018-06-17T00:04:57.183Z,58.31
2018-06-17T00:07:25.776Z,58.29
2018-06-17T00:09:54.824Z,58.20
2018-06-17T00:12:23.451Z,58.40
2018-06-17T00:14:52.136Z,58.38
2018-06-17T00:17:20.884Z,58.65
2018-06-17T00:19:49.492Z,57.10
2018-06-17T00:22:18.015Z,58.11
2018-06-17T00:24:46.759Z,57.61
2018-06-17T00:27:15.328Z,57.29
2018-06-17T00:29:43.992Z,57.16
2018-06-17T00:32:12.751Z,58.40
2018-06-17T00:34:41.405Z,57.64
2018-06-17T00:37:10.020Z,57.72
2018-06-17T00:39:38.721Z,57.75
2018-06-17T00:42:07.792Z,58.36
2018-06-17T00:44:36.327Z,58.26
2018-06-17T00:47:05.037Z,57.41
2018-06-17T00:49:33.635Z,58.31
2018-06-17T00:52:02.560Z,57.92
2018-06-17T00:54:31.192Z,58.00
2018-06-17T00:57:10.921Z,58.47
2018-06-17T00:59:39.495Z,58.21
2018-06-17T01:02:08.048Z,58.00
2018-06-17T01:04:36.763Z,58.49
2018-06-17T01:07:05.520Z,57.48
2018-06-17T01:09:34.042Z,57.59
2018-06-17T01:12:02.654Z,57.37
2018-06-17T01:14:31.305Z,58.26
2018-06-17T01:17:01.076Z,57.09
2018-06-17T01:19:29.716Z,57.29
2018-06-17T01:21:58.483Z,57.36
2018-06-17T01:24:27.093Z,57.33
2018-06-17T01:26:55.788Z,56.57
2018-06-17T01:29:24.471Z,56.75
2018-06-17T01:31:53.007Z,57.59
2018-06-17T01:34:21.615Z,56.34
2018-06-17T01:36:50.218Z,57.39
2018-06-17T01:39:18.777Z,56.51
2018-06-17T01:41:47.735Z,56.79
2018-06-17T01:44:16.353Z,56.47
2018-06-17T01:46:45.021Z,56.13
2018-06-17T01:49:13.631Z,56.17
2018-06-17T01:51:42.199Z,56.92
2018-06-17T01:54:10.937Z,56.83
2018-06-17T01:56:39.488Z,56.00
2018-06-17T01:59:08.223Z,56.37
2018-06-17T02:01:37.150Z,56.32
2018-06-17T02:04:11.024Z,55.26
2018-06-17T02:06:44.756Z,55.70
2018-06-17T02:09:18.614Z,55.41
2018-06-17T02:11:52.571Z,55.27
2018-06-17T02:14:26.330Z,55.43
2018-06-17T02:16:54.952Z,55.74
2018-06-17T02:19:23.691Z,54.91
2018-06-17T02:21:52.451Z,55.75
2018-06-17T02:24:21.088Z,55.58
2018-06-17T02:26:49.775Z,56.20
2018-06-17T02:29:18.415Z,56.12
2018-06-17T02:31:47.043Z,56.31
2018-06-17T02:34:15.920Z,56.00
2018-06-17T02:36:44.560Z,55.36
2018-06-17T02:39:13.095Z,55.86
2018-06-17T02:41:41.771Z,55.00
2018-06-17T02:44:10.327Z,54.94
2018-06-17T02:46:44.259Z,55.86
2018-06-17T02:49:18.230Z,55.49
2018-06-17T02:51:52.014Z,55.47
2018-06-17T02:54:25.860Z,55.48
2018-06-17T02:56:54.456Z,55.29
2018-06-17T02:59:23.221Z,55.17
2018-06-17T03:01:52.028Z,55.03
2018-06-17T03:04:20.604Z,55.54
2018-06-17T03:06:49.168Z,56.19
2018-06-17T03:09:17.779Z,55.80
2018-06-17T03:11:46.344Z,55.51
2018-06-17T03:14:14.902Z,55.88
2018-06-17T03:16:43.520Z,55.25
2018-06-17T03:19:12.182Z,55.09
2018-06-17T03:21:40.836Z,54.68
2018-06-17T03:24:09.687Z,53.69
2018-06-17T03:26:43.655Z,53.63
2018-06-17T03:29:17.512Z,53.82
2018-06-17T03:31:51.456Z,54.25
2018-06-17T03:34:20.080Z,53.59
2018-06-17T03:36:48.931Z,53.41
2018-06-17T03:39:17.717Z,53.49
2018-06-17T03:41:46.252Z,52.36
2018-06-17T03:44:14.912Z,51.82
2018-06-17T03:46:43.503Z,51.95
2018-06-17T03:49:12.437Z,51.37
2018-06-17T03:51:41.036Z,51.54
2018-06-17T03:54:09.763Z,51.77
2018-06-17T03:56:38.436Z,52.03
2018-06-17T03:59:07.036Z,52.29
2018-06-17T04:01:36.179Z,52.42
2018-06-17T04:04:05.041Z,52.96
2018-06-17T04:06:33.756Z,52.75
2018-06-17T04:09:02.308Z,52.67
2018-06-17T04:11:30.994Z,52.02
2018-06-17T04:13:59.908Z,52.19
2018-06-17T04:16:28.549Z,52.84
2018-06-17T04:18:57.201Z,52.22
2018-06-17T04:21:25.812Z,52.38
2018-06-17T04:23:54.516Z,53.45
2018-06-17T04:26:23.441Z,53.47
2018-06-17T04:28:52.084Z,52.00
2018-06-17T04:31:20.658Z,52.65
2018-06-17T04:33:49.332Z,53.55
2018-06-17T04:36:17.943Z,53.34
2018-06-17T04:38:46.977Z,54.96
2018-06-17T04:41:15.683Z,54.39
2018-06-17T04:43:44.295Z,54.49
2018-06-17T04:46:12.848Z,53.95
2018-06-17T04:48:41.555Z,55.37
2018-06-17T04:51:10.399Z,54.52
2018-06-17T04:53:39.056Z,54.27
2018-06-17T04:56:07.801Z,55.39
2018-06-17T04:58:36.444Z,54.76
2018-06-17T05:01:05.103Z,54.17
2018-06-17T05:03:33.827Z,54.77
2018-06-17T05:06:02.720Z,55.46
2018-06-17T05:08:31.259Z,56.90
2018-06-17T05:10:59.876Z,56.50
2018-06-17T05:13:28.447Z,55.34
2018-06-17T05:15:57.079Z,56.29
2018-06-17T05:18:25.698Z,56.47
2018-06-17T05:20:54.815Z,56.78
2018-06-17T05:23:23.405Z,58.61
2018-06-17T05:25:51.983Z,58.98
2018-06-17T05:28:20.892Z,58.87
2018-06-17T05:30:49.556Z,58.62
2018-06-17T05:33:18.279Z,58.89
2018-06-17T05:35:46.963Z,59.38
2018-06-17T05:38:15.605Z,60.61
2018-06-17T05:40:44.424Z,60.87
2018-06-17T05:43:13.144Z,60.69
2018-06-17T05:45:41.752Z,60.51
2018-06-17T05:48:10.809Z,62.58
2018-06-17T05:50:39.601Z,62.60
2018-06-17T05:53:08.594Z,62.60
2018-06-17T05:55:37.238Z,62.55
2018-06-17T05:58:05.860Z,62.14
2018-06-17T06:00:34.471Z,61.90
2018-06-17T06:03:03.056Z,61.14
2018-06-17T06:05:31.748Z,61.21
2018-06-17T06:08:00.408Z,60.48
2018-06-17T06:10:29.454Z,60.00
2018-06-17T06:12:58.040Z,59.98
2018-06-17T06:15:26.596Z,58.84
2018-06-17T06:17:55.435Z,59.89
2018-06-17T06:20:24.077Z,58.29
2018-06-17T06:22:52.778Z,57.85
2018-06-17T06:25:21.468Z,57.93
2018-06-17T06:27:50.016Z,57.83
2018-06-17T06:30:18.639Z,58.60
2018-06-17T06:32:47.205Z,57.73
2018-06-17T06:35:15.771Z,57.30
2018-06-17T06:37:44.733Z,57.46
2018-06-17T06:40:13.264Z,56.30
2018-06-17T06:42:42.226Z,55.67
2018-06-17T06:45:11.006Z,55.08
2018-06-17T06:47:39.745Z,53.89
2018-06-17T06:50:08.539Z,52.24
2018-06-17T06:52:37.095Z,49.49
2018-06-17T06:55:05.941Z,46.36
2018-06-17T06:57:34.694Z,45.51
2018-06-17T07:00:03.356Z,42.51
2018-06-17T07:02:43.096Z,41.80
2018-06-17T07:06:20.792Z,40.80
2018-06-17T07:09:00.716Z,39.32
2018-06-17T07:11:29.339Z,37.54
2018-06-17T07:13:57.988Z,36.36
2018-06-17T07:17:41.459Z,35.84
2018-06-17T07:20:10.175Z,36.65
2018-06-17T07:22:38.839Z,35.34
2018-06-17T07:25:07.547Z,35.38
2018-06-17T07:27:47.532Z,35.40
2018-06-17T07:30:16.142Z,34.62
2018-06-17T07:32:44.909Z,34.89
2018-06-17T07:35:13.655Z,33.83
2018-06-17T07:37:42.360Z,34.97
2018-06-17T07:40:50.758Z,33.66
2018-06-17T07:43:19.437Z,32.92
2018-06-17T07:45:48.170Z,33.89
2018-06-17T07:48:28.024Z,33.25
2018-06-17T07:52:07.388Z,31.87
2018-06-17T07:54:37.042Z,30.81
2018-06-17T07:57:06.301Z,30.01
2018-06-17T07:59:35.429Z,31.26
2018-06-17T08:02:04.863Z,32.45
2018-06-17T08:04:33.501Z,31.28
2018-06-17T08:07:02.412Z,30.96
2018-06-17T08:09:32.028Z,30.18
2018-06-17T08:12:01.098Z,27.76
2018-06-17T08:14:31.029Z,29.81
2018-06-17T08:17:00.421Z,28.34
2018-06-17T08:19:30.376Z,26.91
2018-06-17T08:22:00.356Z,27.44
2018-06-17T08:24:29.348Z,27.72
2018-06-17T08:26:58.404Z,26.75
2018-06-17T08:29:27.181Z,26.92
2018-06-17T08:31:56.438Z,25.29
2018-06-17T08:34:25.556Z,25.54
2018-06-17T08:36:54.247Z,25.63
2018-06-17T08:39:24.037Z,25.95
2018-06-17T08:41:52.809Z,27.01
2018-06-17T08:44:22.579Z,27.89
2018-06-17T08:46:51.652Z,27.49
2018-06-17T08:49:21.009Z,24.83
2018-06-17T08:51:49.811Z,26.67
2018-06-17T08:54:18.776Z,25.56
2018-06-17T08:56:47.982Z,27.47
2018-06-17T08:59:16.545Z,28.66
2018-06-17T09:01:45.124Z,28.84
2018-06-17T09:04:13.695Z,29.32
2018-06-17T09:06:42.329Z,29.01
2018-06-17T09:09:12.691Z,29.10
2018-06-17T09:11:41.312Z,30.62
2018-06-17T09:14:09.874Z,29.77
2018-06-17T09:16:39.364Z,29.78
2018-06-17T09:19:07.988Z,30.56
2018-06-17T09:21:36.823Z,29.82
2018-06-17T09:24:05.377Z,29.27
2018-06-17T09:26:33.967Z,28.70
2018-06-17T09:29:02.658Z,26.89
2018-06-17T09:31:31.522Z,27.63
2018-06-17T09:34:00.335Z,27.35
2018-06-17T09:36:28.899Z,25.04
2018-06-17T09:38:57.484Z,24.05
2018-06-17T09:41:26.041Z,22.10
2018-06-17T09:43:54.592Z,21.28
2018-06-17T09:46:23.252Z,21.92
2018-06-17T09:48:51.968Z,21.75
2018-06-17T09:51:20.592Z,22.90
2018-06-17T09:53:49.260Z,21.83
2018-06-17T09:56:17.816Z,22.36
2018-06-17T09:58:46.484Z,22.32
2018-06-17T10:01:15.020Z,22.49
2018-06-17T10:03:43.559Z,22.12
2018-06-17T10:06:12.119Z,18.32
2018-06-17T10:08:40.639Z,17.76
2018-06-17T10:11:09.391Z,19.26
2018-06-17T10:13:41.144Z,19.97
2018-06-17T10:16:10.088Z,18.97
2018-06-17T10:18:38.678Z,20.31
2018-06-17T10:21:07.425Z,18.85
2018-06-17T10:23:35.980Z,20.86
2018-06-17T10:26:04.553Z,21.98
2018-06-17T10:28:33.899Z,23.63
2018-06-17T10:31:03.884Z,24.34
2018-06-17T10:33:32.963Z,25.96
2018-06-17T10:36:02.140Z,27.46
2018-06-17T10:38:31.549Z,28.68
2018-06-17T10:41:00.314Z,27.25
2018-06-17T10:43:31.239Z,26.45
2018-06-17T10:46:01.089Z,25.73
2018-06-17T10:48:30.179Z,23.58
2018-06-17T10:50:58.823Z,24.30
2018-06-17T10:53:27.765Z,22.36
2018-06-17T10:55:56.458Z,20.48
2018-06-17T10:58:25.068Z,20.24
2018-06-17T11:00:53.842Z,19.69
2018-06-17T11:03:22.540Z,19.75
2018-06-17T11:05:51.315Z,19.33
2018-06-17T11:08:19.870Z,20.59
2018-06-17T11:10:48.500Z,22.10
2018-06-17T11:13:17.071Z,24.42
2018-06-17T11:15:45.889Z,24.99
2018-06-17T11:18:14.520Z,27.28
2018-06-17T11:20:43.204Z,28.24
2018-06-17T11:23:11.885Z,28.27
2018-06-17T11:25:40.659Z,29.53
2018-06-17T11:28:09.295Z,28.31
2018-06-17T11:30:38.281Z,28.22
2018-06-17T11:33:06.908Z,28.51
2018-06-17T11:35:39.559Z,29.40
2018-06-17T11:38:08.404Z,29.66
2018-06-17T11:40:37.283Z,29.40
2018-06-17T11:43:05.988Z,30.44
2018-06-17T11:45:34.911Z,29.20
2018-06-17T11:48:03.668Z,28.70
2018-06-17T11:50:32.205Z,27.57
2018-06-17T11:53:04.693Z,28.10
2018-06-17T11:55:33.616Z,27.70
2018-06-17T11:58:02.756Z,27.87
2018-06-17T12:00:31.669Z,27.50
2018-06-17T12:03:00.467Z,28.76
2018-06-17T12:05:29.669Z,29.58
2018-06-17T12:07:58.940Z,30.68
2018-06-17T12:10:27.876Z,31.38
2018-06-17T12:12:56.945Z,32.42
2018-06-17T12:15:25.688Z,32.93
2018-06-17T12:17:55.372Z,33.90
2018-06-17T12:20:24.063Z,34.28
2018-06-17T12:22:54.260Z,34.73
2018-06-17T12:25:23.415Z,35.23
2018-06-17T12:27:52.336Z,35.47
2018-06-17T12:30:21.219Z,36.70
2018-06-17T12:32:50.045Z,36.16
2018-06-17T12:35:19.064Z,36.93
2018-06-17T12:37:47.680Z,37.23
2018-06-17T12:40:16.269Z,37.07
2018-06-17T12:42:45.544Z,36.25
2018-06-17T12:45:15.745Z,36.79
2018-06-17T12:47:44.482Z,33.65
2018-06-17T12:50:13.384Z,30.38
2018-06-17T12:52:42.333Z,27.94
2018-06-17T12:55:11.049Z,24.75
2018-06-17T12:57:39.659Z,23.32
2018-06-17T13:00:08.389Z,23.16
2018-06-17T13:02:37.012Z,25.04
2018-06-17T13:05:06.172Z,24.75
2018-06-17T13:07:35.155Z,24.42
2018-06-17T13:10:03.944Z,24.96
2018-06-17T13:12:33.377Z,25.37
2018-06-17T13:15:02.252Z,25.82
2018-06-17T13:17:31.268Z,27.52
2018-06-17T13:20:00.236Z,27.19
2018-06-17T13:22:29.020Z,28.00
2018-06-17T13:24:57.839Z,27.92
2018-06-17T13:27:26.570Z,28.16
2018-06-17T13:29:59.299Z,29.21
2018-06-17T13:32:28.382Z,28.89
2018-06-17T13:35:00.242Z,28.49
2018-06-17T13:37:31.173Z,27.61
2018-06-17T13:40:01.676Z,28.74
2018-06-17T13:42:30.555Z,25.28
2018-06-17T13:45:00.457Z,25.00
2018-06-17T13:47:32.187Z,24.51
2018-06-17T13:50:01.684Z,24.41
2018-06-17T13:52:30.684Z,25.72
2018-06-17T13:54:59.267Z,28.39
2018-06-17T13:57:27.995Z,29.02
2018-06-17T13:59:57.061Z,29.13
2018-06-17T14:02:26.048Z,28.22
2018-06-17T14:04:55.524Z,26.94
2018-06-17T14:07:24.138Z,27.10
2018-06-17T14:09:53.131Z,26.96
2018-06-17T14:12:21.750Z,27.83
2018-06-17T14:14:50.685Z,28.68
2018-06-17T14:17:20.211Z,28.10
2018-06-17T14:19:48.954Z,29.02
2018-06-17T14:22:17.576Z,28.16
2018-06-17T14:24:46.424Z,28.36
2018-06-17T14:27:15.512Z,26.63
2018-06-17T14:29:44.063Z,25.93
2018-06-17T14:32:13.204Z,25.91
2018-06-17T14:34:41.805Z,27.46
2018-06-17T14:37:10.341Z,28.62
2018-06-17T14:39:39.456Z,30.27
2018-06-17T14:42:13.568Z,30.80
2018-06-17T14:44:47.959Z,31.96
2018-06-17T14:47:22.295Z,32.80
2018-06-17T14:49:56.204Z,34.58
2018-06-17T14:52:30.860Z,34.18
2018-06-17T14:54:59.684Z,34.36
2018-06-17T14:57:28.795Z,35.18
2018-06-17T14:59:57.421Z,35.78
2018-06-17T15:02:26.357Z,36.01
2018-06-17T15:04:54.973Z,35.60
2018-06-17T15:07:23.915Z,34.77
2018-06-17T15:09:53.064Z,33.08
2018-06-17T15:12:21.712Z,33.28
2018-06-17T15:14:50.806Z,32.25
2018-06-17T15:17:19.422Z,32.97
2018-06-17T15:19:48.462Z,33.30
2018-06-17T15:22:17.001Z,32.54
2018-06-17T15:24:45.551Z,33.05
2018-06-17T15:27:14.131Z,34.84
2018-06-17T15:29:42.717Z,34.71
2018-06-17T15:33:19.392Z,35.24
2018-06-17T15:35:53.707Z,35.33
2018-06-17T15:38:27.452Z,35.55
2018-06-17T15:41:01.112Z,35.45
2018-06-17T15:43:29.819Z,34.41
2018-06-17T15:45:58.801Z,35.61
2018-06-17T15:48:28.238Z,35.80
2018-06-17T15:50:57.189Z,35.46
2018-06-17T15:53:27.514Z,35.17
2018-06-17T15:55:57.061Z,35.33
2018-06-17T15:58:26.551Z,34.77
2018-06-17T16:00:55.940Z,33.50
2018-06-17T16:03:25.512Z,34.31
2018-06-17T16:05:54.203Z,34.38
2018-06-17T16:08:22.752Z,34.20
2018-06-17T16:10:51.513Z,33.87
2018-06-17T16:13:25.266Z,34.59
2018-06-17T16:15:59.056Z,34.50
2018-06-17T16:19:37.059Z,34.82
2018-06-17T16:22:05.589Z,35.05
2018-06-17T16:24:34.212Z,35.21
2018-06-17T16:27:03.261Z,36.19
2018-06-17T16:29:31.936Z,37.19
2018-06-17T16:32:00.446Z,36.72
2018-06-17T16:34:29.299Z,36.91
2018-06-17T16:36:57.908Z,36.90
2018-06-17T16:39:26.559Z,37.46
2018-06-17T16:41:55.261Z,36.32
2018-06-17T16:44:23.891Z,36.33
2018-06-17T16:46:52.496Z,36.51
2018-06-17T16:49:21.070Z,37.10
2018-06-17T16:51:54.771Z,36.81
2018-06-17T16:54:28.519Z,37.31
2018-06-17T16:57:02.307Z,36.50
2018-06-17T16:59:36.124Z,35.93
2018-06-17T17:02:04.697Z,35.77
2018-06-17T17:04:33.220Z,34.90
2018-06-17T17:07:01.787Z,35.79
2018-06-17T17:09:30.440Z,36.29
2018-06-17T17:11:59.176Z,37.32
2018-06-17T17:14:27.884Z,36.61
2018-06-17T17:16:56.463Z,36.92
2018-06-17T17:19:25.048Z,37.21
2018-06-17T17:21:53.624Z,37.54
2018-06-17T17:24:22.208Z,37.60
2018-06-17T17:26:50.740Z,37.67
2018-06-17T17:29:19.526Z,38.44
2018-06-17T17:31:53.359Z,38.34
2018-06-17T17:34:27.324Z,38.14
2018-06-17T17:37:01.315Z,38.44
2018-06-17T17:39:35.987Z,38.08
2018-06-17T17:42:05.080Z,37.44
2018-06-17T17:44:38.772Z,37.58
2018-06-17T17:47:12.835Z,38.93
2018-06-17T17:49:41.552Z,39.45
2018-06-17T17:52:10.241Z,39.56
2018-06-17T17:54:38.828Z,38.62
2018-06-17T17:57:07.972Z,39.08
2018-06-17T17:59:36.680Z,39.97
2018-06-17T18:02:05.424Z,39.26
2018-06-17T18:04:34.320Z,40.47
2018-06-17T18:07:03.303Z,40.22
2018-06-17T18:09:32.534Z,40.55
2018-06-17T18:12:01.068Z,40.22
2018-06-17T18:14:30.216Z,40.64
2018-06-17T18:16:58.882Z,41.01
2018-06-17T18:19:27.953Z,40.33
2018-06-17T18:21:57.168Z,40.56
2018-06-17T18:24:26.152Z,41.07
2018-06-17T18:26:59.947Z,41.10
2018-06-17T18:29:33.743Z,40.56
2018-06-17T18:32:07.614Z,41.76
2018-06-17T18:34:41.532Z,41.28
2018-06-17T18:37:10.228Z,42.01
2018-06-17T18:39:38.876Z,41.42
2018-06-17T18:42:07.707Z,41.89
2018-06-17T18:44:36.300Z,41.80
2018-06-17T18:47:05.002Z,42.03
2018-06-17T18:49:33.698Z,42.31
2018-06-17T18:52:02.356Z,42.05
2018-06-17T18:54:31.404Z,42.87
2018-06-17T18:57:00.224Z,43.20
2018-06-17T18:59:28.957Z,42.41
2018-06-17T19:01:57.659Z,42.49
2018-06-17T19:04:26.487Z,43.53
2018-06-17T19:06:56.503Z,42.89
2018-06-17T19:09:30.569Z,42.77
2018-06-17T19:12:04.509Z,42.61
2018-06-17T19:14:38.314Z,42.47
2018-06-17T19:17:12.171Z,42.42
2018-06-17T19:19:40.765Z,42.28
2018-06-17T19:22:09.423Z,42.34
2018-06-17T19:24:38.264Z,42.91
2018-06-17T19:27:07.231Z,42.53
2018-06-17T19:29:35.946Z,42.69
2018-06-17T19:32:04.706Z,42.70
2018-06-17T19:34:33.516Z,43.39
2018-06-17T19:37:02.248Z,43.31
2018-06-17T19:39:31.372Z,43.10
2018-06-17T19:42:00.842Z,43.50
2018-06-17T19:44:29.811Z,44.51
2018-06-17T19:46:58.635Z,44.82
2018-06-17T19:49:32.544Z,45.52
2018-06-17T19:52:06.517Z,45.61
2018-06-17T19:54:40.315Z,45.03
2018-06-17T19:57:14.135Z,45.51
2018-06-17T19:59:48.011Z,45.86
2018-06-17T20:02:16.536Z,46.26
2018-06-17T20:04:45.243Z,46.32
2018-06-17T20:07:13.832Z,46.47
2018-06-17T20:09:42.507Z,45.96
2018-06-17T20:12:11.184Z,47.05
2018-06-17T20:14:39.894Z,46.88
2018-06-17T20:17:08.668Z,47.21
2018-06-17T20:19:37.583Z,47.17
2018-06-17T20:22:07.219Z,47.67
2018-06-17T20:24:36.344Z,47.86
2018-06-17T20:27:06.875Z,47.78
2018-06-17T20:29:36.979Z,47.35
2018-06-17T20:32:11.341Z,48.37
2018-06-17T20:34:45.797Z,48.42
2018-06-17T20:37:20.502Z,48.91
2018-06-17T20:39:58.231Z,49.88
2018-06-17T20:42:33.836Z,49.44
2018-06-17T20:45:03.253Z,49.88
2018-06-17T20:47:32.254Z,49.87
2018-06-17T20:50:00.997Z,50.47
2018-06-17T20:52:30.898Z,50.53
2018-06-17T20:55:00.081Z,50.04
2018-06-17T20:57:29.090Z,51.69
2018-06-17T20:59:59.779Z,52.44
2018-06-17T21:02:28.504Z,51.94
2018-06-17T21:04:57.338Z,52.55
2018-06-17T21:07:27.428Z,52.40
2018-06-17T21:09:56.387Z,53.27
2018-06-17T21:12:26.420Z,53.63
2018-06-17T21:14:56.004Z,53.21
2018-06-17T21:17:24.924Z,52.69
2018-06-17T21:19:58.866Z,52.89
2018-06-17T21:22:32.901Z,53.59
2018-06-17T21:25:06.846Z,53.34
2018-06-17T21:27:42.400Z,53.97
2018-06-17T21:30:12.200Z,53.80
2018-06-17T21:32:41.690Z,54.39
2018-06-17T21:35:11.314Z,53.47
2018-06-17T21:37:40.223Z,53.27
2018-06-17T21:40:08.859Z,53.26
2018-06-17T21:42:37.611Z,53.32
2018-06-17T21:45:06.743Z,52.82
2018-06-17T21:47:35.341Z,53.04
2018-06-17T21:50:04.045Z,53.07
2018-06-17T21:52:32.686Z,54.15
2018-06-17T21:55:01.472Z,54.64
2018-06-17T21:57:30.116Z,53.89
2018-06-17T21:59:58.915Z,54.45
2018-06-17T22:02:28.589Z,54.79
2018-06-17T22:04:57.673Z,55.32
2018-06-17T22:07:26.320Z,55.11
2018-06-17T22:10:00.375Z,55.70
2018-06-17T22:12:34.283Z,55.71
2018-06-17T22:15:08.221Z,55.90
2018-06-17T22:17:57.366Z,56.08
2018-06-17T22:20:26.244Z,56.81
2018-06-17T22:22:54.880Z,55.95
2018-06-17T22:25:23.639Z,56.97
2018-06-17T22:27:52.295Z,57.15
2018-06-17T22:30:21.300Z,57.00
2018-06-17T22:32:49.997Z,57.25
2018-06-17T22:35:18.647Z,57.26
2018-06-17T22:37:47.379Z,57.46
2018-06-17T22:40:16.024Z,57.76
2018-06-17T22:42:44.644Z,57.74
2018-06-17T22:45:13.716Z,57.76
2018-06-17T22:47:47.532Z,57.93
2018-06-17T22:50:16.316Z,57.83
2018-06-17T22:52:56.163Z,57.89
2018-06-17T22:55:25.273Z,58.03
2018-06-17T22:57:59.139Z,58.31
2018-06-17T23:00:33.576Z,58.37
2018-06-17T23:03:07.614Z,59.45
2018-06-17T23:05:41.680Z,59.31
2018-06-17T23:08:15.453Z,59.25
2018-06-17T23:10:44.442Z,58.93
2018-06-17T23:13:13.164Z,59.19
2018-06-17T23:15:42.186Z,58.70
2018-06-17T23:18:10.768Z,58.47
2018-06-17T23:20:39.424Z,59.56
2018-06-17T23:23:08.239Z,59.05
2018-06-17T23:25:37.728Z,59.11
2018-06-17T23:28:06.456Z,58.35
2018-06-17T23:30:35.166Z,58.95
2018-06-17T23:33:03.960Z,58.26
2018-06-17T23:35:33.120Z,58.90
2018-06-17T23:38:01.740Z,58.73
2018-06-17T23:40:30.323Z,58.69
2018-06-17T23:42:59.019Z,58.71
2018-06-17T23:45:28.114Z,58.82
2018-06-17T23:48:02.111Z,58.51
2018-06-17T23:50:36.027Z,58.90
2018-06-17T23:53:09.900Z,60.46
2018-06-17T23:55:43.622Z,59.80
2018-06-17T23:58:12.379Z,59.56
